Time;durP1;ratioP1;P1;durP2;ratioP2;P2;SDS_P1;SDS_P2;PMS_P1;PMS_P2;Temp;Humidity;BMP_temperature;BMP_pressure;BME280_temperature;BME280_humidity;BME280_pressure;Samples;Min_cycle;Max_cycle;Signal;HPM_P1;HPM_P2
2021/12/26 00:00:59;;;;;;;17.25;4.80;;;10.90;99.90;;;;;;5033521;28;20048;-82
2021/12/26 00:03:29;;;;;;;21.30;7.70;;;11.00;99.90;;;;;;5015785;28;20021;-82
2021/12/26 00:05:57;;;;;;;25.00;8.93;;;10.90;99.90;;;;;;5033075;28;20474;-82
2021/12/26 00:08:23;;;;;;;23.95;9.63;;;11.00;99.90;;;;;;5033289;28;20017;-82
2021/12/26 00:10:50;;;;;;;21.13;7.82;;;10.90;99.90;;;;;;5033843;28;20022;-82
2021/12/26 00:13:17;;;;;;;18.85;6.53;;;10.90;99.90;;;;;;5033343;28;20026;-82
2021/12/26 00:15:43;;;;;;;37.88;9.82;;;11.00;99.90;;;;;;5015579;28;20036;-82
2021/12/26 00:18:10;;;;;;;26.33;9.63;;;10.90;99.90;;;;;;5015496;28;20032;-82
2021/12/26 00:20:37;;;;;;;23.23;7.32;;;10.90;99.90;;;;;;5033232;28;20054;-82
2021/12/26 00:23:03;;;;;;;24.40;9.38;;;10.90;99.90;;;;;;5033115;28;20026;-82
2021/12/26 00:25:29;;;;;;;17.90;6.13;;;10.80;99.90;;;;;;5033062;28;20037;-82
2021/12/26 00:27:55;;;;;;;20.83;5.38;;;10.90;99.90;;;;;;5032793;28;20537;-83
2021/12/26 00:30:21;;;;;;;23.90;7.28;;;10.80;99.90;;;;;;5033019;28;20086;-82
2021/12/26 00:32:48;;;;;;;23.95;7.10;;;10.90;99.90;;;;;;5032907;28;20022;-82
2021/12/26 00:35:16;;;;;;;12.93;4.72;;;10.80;99.90;;;;;;5033015;28;20506;-82
2021/12/26 00:37:42;;;;;;;26.38;6.18;;;10.80;99.90;;;;;;5032901;28;20112;-83
2021/12/26 00:40:10;;;;;;;17.65;4.22;;;10.80;99.90;;;;;;5015007;28;20207;-83
2021/12/26 00:42:36;;;;;;;21.95;5.57;;;10.80;99.90;;;;;;5032898;28;20100;-83
2021/12/26 00:45:04;;;;;;;22.55;6.75;;;10.70;99.90;;;;;;5014630;28;20150;-83
2021/12/26 00:47:32;;;;;;;18.50;5.57;;;10.70;99.90;;;;;;5014825;28;20018;-83
2021/12/26 00:49:58;;;;;;;20.95;6.07;;;10.70;99.90;;;;;;5032418;28;20048;-83
2021/12/26 00:52:24;;;;;;;17.55;5.25;;;10.70;99.90;;;;;;5032575;28;20050;-83
2021/12/26 00:54:50;;;;;;;18.02;4.55;;;10.70;99.90;;;;;;5032549;28;20034;-83
2021/12/26 00:57:16;;;;;;;18.38;4.00;;;10.70;99.90;;;;;;5032604;28;20067;-83
2021/12/26 00:59:41;;;;;;;17.88;5.00;;;10.70;99.90;;;;;;5032276;28;20122;-83
2021/12/26 01:02:07;;;;;;;23.67;5.95;;;10.70;99.90;;;;;;5032359;28;20133;-83
2021/12/26 01:04:33;;;;;;;15.30;4.15;;;10.80;99.90;;;;;;5032373;28;20072;-84
2021/12/26 01:07:06;;;;;;;15.98;5.80;;;10.80;99.90;;;;;;5032129;28;20037;-84
2021/12/26 01:09:32;;;;;;;20.05;5.22;;;10.80;99.90;;;;;;5032016;28;20120;-84
2021/12/26 01:12:00;;;;;;;12.77;3.35;;;10.80;99.90;;;;;;5032301;28;20496;-84
2021/12/26 01:14:30;;;;;;;16.35;4.22;;;10.80;99.90;;;;;;5032266;28;20036;-84
2021/12/26 01:17:19;;;;;;;20.42;5.82;;;10.90;99.90;;;;;;5014347;28;20026;-84
2021/12/26 01:19:49;;;;;;;14.13;2.55;;;10.80;99.90;;;;;;5031963;28;20071;-84
2021/12/26 01:22:17;;;;;;;12.25;4.05;;;10.80;99.90;;;;;;5032159;28;20399;-84
2021/12/26 01:24:44;;;;;;;27.50;5.78;;;10.80;99.90;;;;;;5014331;28;20022;-84
2021/12/26 01:27:12;;;;;;;21.08;4.70;;;10.70;99.90;;;;;;5031766;28;20036;-84
2021/12/26 01:29:39;;;;;;;19.13;5.00;;;10.70;99.90;;;;;;5013879;28;20018;-85
2021/12/26 01:32:05;;;;;;;18.60;6.05;;;10.80;99.90;;;;;;5031788;28;20025;-85
2021/12/26 01:34:32;;;;;;;16.88;4.78;;;10.80;99.90;;;;;;5031579;28;20033;-85
2021/12/26 01:36:57;;;;;;;15.77;3.33;;;10.80;99.90;;;;;;5031587;28;20129;-85
2021/12/26 01:39:24;;;;;;;15.55;3.55;;;10.80;99.90;;;;;;5031727;28;20535;-85
2021/12/26 01:41:50;;;;;;;12.98;3.78;;;10.80;99.90;;;;;;5031813;28;20071;-86
2021/12/26 01:44:16;;;;;;;12.73;2.78;;;10.90;99.90;;;;;;5031643;28;20034;-85
2021/12/26 01:46:45;;;;;;;17.73;4.63;;;10.80;99.90;;;;;;5031485;28;20033;-85
2021/12/26 01:49:12;;;;;;;15.82;4.07;;;10.90;99.90;;;;;;5031154;28;20021;-86
2021/12/26 01:51:39;;;;;;;13.88;3.75;;;10.90;99.90;;;;;;5031369;28;20032;-86
2021/12/26 01:54:09;;;;;;;19.27;4.75;;;10.90;99.90;;;;;;5013564;28;20029;-86
2021/12/26 01:56:36;;;;;;;25.73;5.80;;;10.90;99.90;;;;;;5013715;28;20508;-86
2021/12/26 01:59:05;;;;;;;21.00;5.22;;;10.90;99.90;;;;;;5031605;28;20025;-86
2021/12/26 02:01:31;;;;;;;20.52;4.82;;;10.90;99.90;;;;;;5013564;28;20037;-86
2021/12/26 02:03:57;;;;;;;15.68;3.13;;;10.90;99.90;;;;;;5031336;28;20105;-86
2021/12/26 02:06:23;;;;;;;17.95;4.13;;;10.80;99.90;;;;;;5013239;28;20210;-86
2021/12/26 02:08:49;;;;;;;26.88;5.97;;;10.80;99.90;;;;;;5013120;28;20099;-86
2021/12/26 02:11:15;;;;;;;20.02;4.75;;;10.80;99.90;;;;;;5030319;28;20112;-87
2021/12/26 02:13:41;;;;;;;24.55;3.90;;;10.80;99.90;;;;;;5030880;28;20025;-87
2021/12/26 02:16:08;;;;;;;15.02;3.47;;;10.80;99.90;;;;;;5013377;28;20025;-87
2021/12/26 02:18:33;;;;;;;21.90;3.95;;;10.90;99.90;;;;;;5030883;28;20486;-87
2021/12/26 02:28:44;;;;;;;23.80;4.53;;;10.90;99.90;;;;;;5030831;28;20545;-88
2021/12/26 02:31:11;;;;;;;29.67;3.75;;;10.80;99.90;;;;;;5012810;28;20034;-87
2021/12/26 02:33:37;;;;;;;16.08;3.53;;;10.90;99.90;;;;;;5012634;28;20440;-87
2021/12/26 02:36:04;;;;;;;24.30;3.50;;;10.90;99.90;;;;;;5030935;28;20049;-87
2021/12/26 02:38:30;;;;;;;17.08;3.08;;;10.80;99.90;;;;;;5030522;28;20025;-88
2021/12/26 02:40:57;;;;;;;21.15;3.78;;;10.90;99.90;;;;;;5012753;28;20422;-90
2021/12/26 02:43:26;;;;;;;22.52;3.97;;;10.90;99.90;;;;;;5030612;28;20092;-90
2021/12/26 02:45:52;;;;;;;23.08;4.18;;;10.90;99.90;;;;;;5012774;28;20060;-88
2021/12/26 02:48:18;;;;;;;32.58;4.05;;;11.00;99.90;;;;;;5030301;28;20053;-89
2021/12/26 02:50:47;;;;;;;24.77;4.25;;;11.00;99.90;;;;;;5030175;28;20108;-88
2021/12/26 02:53:20;;;;;;;32.33;5.30;;;11.00;99.90;;;;;;5030127;28;20033;-88
2021/12/26 02:55:47;;;;;;;43.05;5.35;;;11.00;99.90;;;;;;5012710;28;20056;-89
2021/12/26 02:58:13;;;;;;;37.00;5.10;;;11.00;99.90;;;;;;5030305;28;20033;-89
2021/12/26 03:00:43;;;;;;;40.67;4.95;;;11.00;99.90;;;;;;5030135;28;20041;-89
2021/12/26 03:03:11;;;;;;;29.05;4.47;;;11.10;99.90;;;;;;5012688;28;20037;-89
2021/12/26 03:05:40;;;;;;;31.67;4.03;;;11.10;99.90;;;;;;5030219;28;20340;-89
2021/12/26 03:08:07;;;;;;;31.33;4.25;;;11.10;99.90;;;;;;5030122;28;20510;-89
2021/12/26 03:10:33;;;;;;;36.13;5.05;;;11.20;99.90;;;;;;5012175;28;20053;-89
2021/12/26 03:13:05;;;;;;;34.33;4.78;;;11.20;99.90;;;;;;5030305;28;20075;-89
2021/12/26 03:15:32;;;;;;;40.83;4.85;;;11.20;99.90;;;;;;5012286;28;20083;-89
2021/12/26 03:18:00;;;;;;;42.85;5.28;;;11.20;99.90;;;;;;5012058;28;20456;-89
2021/12/26 03:20:30;;;;;;;44.78;6.03;;;11.20;99.90;;;;;;5029867;28;20030;-89
2021/12/26 03:22:59;;;;;;;41.63;5.63;;;11.20;99.90;;;;;;5012269;28;20045;-89
2021/12/26 03:25:26;;;;;;;29.05;4.45;;;11.30;99.90;;;;;;5012418;28;20512;-89
2021/12/26 03:27:51;;;;;;;34.38;5.35;;;11.40;99.90;;;;;;5030303;28;20026;-89
2021/12/26 03:30:21;;;;;;;36.80;4.90;;;11.40;99.90;;;;;;5029893;28;20028;-89
2021/12/26 03:32:47;;;;;;;36.05;5.60;;;11.50;99.90;;;;;;5032038;28;20048;-90
2021/12/26 03:35:13;;;;;;;47.33;6.95;;;11.50;99.90;;;;;;5033472;28;20029;-90
2021/12/26 03:37:40;;;;;;;37.97;4.50;;;11.50;99.90;;;;;;5012350;28;20606;-90
2021/12/26 03:40:08;;;;;;;36.05;5.28;;;11.50;99.90;;;;;;5012510;28;20460;-90
2021/12/26 03:42:34;;;;;;;37.83;5.85;;;11.40;99.90;;;;;;5012393;28;20401;-90
2021/12/26 03:45:00;;;;;;;45.47;5.97;;;11.40;99.90;;;;;;5011878;28;20490;-89
2021/12/26 03:47:26;;;;;;;46.88;6.13;;;11.40;99.90;;;;;;5030082;28;20025;-89
2021/12/26 03:49:53;;;;;;;39.40;6.95;;;11.40;99.90;;;;;;5029676;28;20029;-89
2021/12/26 03:52:22;;;;;;;39.30;6.70;;;11.40;99.90;;;;;;5029947;28;20166;-89
2021/12/26 03:54:48;;;;;;;42.97;7.35;;;11.40;99.90;;;;;;5011879;28;20033;-89
2021/12/26 03:57:14;;;;;;;35.70;7.20;;;11.50;99.90;;;;;;5011707;28;20032;-89
2021/12/26 03:59:39;;;;;;;44.90;7.82;;;11.40;99.90;;;;;;5029899;28;20030;-89
2021/12/26 04:02:05;;;;;;;47.45;6.47;;;11.40;99.90;;;;;;5011870;28;20040;-89
2021/12/26 04:04:31;;;;;;;43.05;6.45;;;11.40;99.90;;;;;;5029676;28;20410;-89
2021/12/26 04:06:57;;;;;;;33.90;5.35;;;11.40;99.90;;;;;;5029466;28;20418;-89
2021/12/26 04:09:22;;;;;;;35.85;5.30;;;11.30;99.90;;;;;;5029594;28;20040;-89
2021/12/26 04:11:48;;;;;;;40.67;6.00;;;11.40;99.90;;;;;;5011870;28;20493;-90
2021/12/26 04:14:15;;;;;;;42.50;6.45;;;11.40;99.90;;;;;;5011690;28;20025;-89
2021/12/26 04:16:41;;;;;;;33.55;5.60;;;11.30;99.90;;;;;;5029391;28;20014;-90
2021/12/26 04:19:07;;;;;;;34.47;5.45;;;11.30;99.90;;;;;;5029176;28;20036;-89
2021/12/26 04:21:33;;;;;;;37.30;5.60;;;11.30;99.90;;;;;;5029661;28;20026;-89
2021/12/26 04:24:00;;;;;;;103.57;12.23;;;11.30;99.90;;;;;;5011797;28;20275;-90
2021/12/26 04:26:25;;;;;;;39.45;6.57;;;11.30;99.90;;;;;;5029442;28;20513;-89
2021/12/26 04:28:51;;;;;;;55.38;9.43;;;11.20;99.90;;;;;;5011602;28;20033;-90
2021/12/26 04:31:17;;;;;;;48.40;6.88;;;11.30;99.90;;;;;;5029268;28;20097;-89
2021/12/26 04:33:43;;;;;;;55.60;8.43;;;11.30;99.90;;;;;;5029427;28;20112;-89
2021/12/26 04:36:09;;;;;;;49.15;7.75;;;11.30;99.90;;;;;;5033258;28;20106;-89
2021/12/26 04:38:35;;;;;;;59.13;9.68;;;11.30;99.90;;;;;;5015042;28;20501;-89
2021/12/26 04:41:03;;;;;;;50.58;10.30;;;11.30;99.90;;;;;;5032821;28;20181;-89
2021/12/26 04:43:33;;;;;;;45.10;8.40;;;11.30;99.90;;;;;;5032846;28;20484;-89
2021/12/26 04:46:01;;;;;;;45.25;8.57;;;11.30;99.90;;;;;;5032766;28;20071;-89
2021/12/26 04:48:27;;;;;;;40.60;7.95;;;11.30;99.90;;;;;;5032701;28;20444;-88
2021/12/26 04:50:52;;;;;;;40.80;8.90;;;11.30;99.90;;;;;;5014912;28;20025;-89
2021/12/26 04:53:18;;;;;;;53.03;10.27;;;11.20;99.90;;;;;;5014913;28;20021;-89
2021/12/26 04:55:44;;;;;;;38.20;8.93;;;11.20;99.90;;;;;;5032628;28;20094;-89
2021/12/26 04:58:09;;;;;;;40.15;9.73;;;11.20;99.90;;;;;;5032935;28;20017;-88
2021/12/26 05:00:35;;;;;;;36.92;7.40;;;11.10;99.90;;;;;;5032307;28;20037;-88
2021/12/26 05:03:03;;;;;;;41.38;6.97;;;11.10;99.90;;;;;;5014835;28;20026;-88
2021/12/26 05:05:30;;;;;;;42.70;6.50;;;11.20;99.90;;;;;;5014497;28;20045;-89
2021/12/26 05:07:56;;;;;;;39.90;6.55;;;11.20;99.90;;;;;;5032286;28;20054;-88
2021/12/26 05:10:25;;;;;;;48.42;7.25;;;11.20;99.90;;;;;;5032333;28;20044;-88
2021/12/26 05:12:51;;;;;;;47.42;6.32;;;11.30;99.90;;;;;;5014491;28;20025;-88
2021/12/26 05:15:17;;;;;;;42.60;5.72;;;11.30;99.90;;;;;;5032122;28;20097;-88
2021/12/26 05:17:43;;;;;;;50.50;7.25;;;11.20;99.90;;;;;;5031989;28;20143;-89
2021/12/26 05:20:10;;;;;;;52.65;6.75;;;11.30;99.90;;;;;;5031861;28;20045;-89
2021/12/26 05:22:36;;;;;;;54.72;5.88;;;11.30;99.90;;;;;;5032112;28;20113;-89
2021/12/26 05:25:06;;;;;;;115.95;13.32;;;11.30;99.90;;;;;;5035558;28;20081;-89
2021/12/26 05:27:32;;;;;;;73.55;11.63;;;11.40;99.90;;;;;;5015486;28;20400;-89
2021/12/26 05:29:58;;;;;;;58.70;10.68;;;11.40;99.90;;;;;;5032072;28;20100;-89
2021/12/26 05:32:23;;;;;;;102.35;16.70;;;11.30;99.90;;;;;;5032052;28;20056;-89
2021/12/26 05:34:49;;;;;;;60.83;10.27;;;11.30;99.90;;;;;;5031810;28;20104;-89
2021/12/26 05:37:15;;;;;;;49.28;10.38;;;11.30;99.90;;;;;;5031767;28;20067;-90
2021/12/26 05:39:42;;;;;;;39.25;9.15;;;11.30;99.90;;;;;;5031448;28;20021;-89
2021/12/26 05:42:14;;;;;;;50.63;9.20;;;11.30;99.90;;;;;;5031697;28;20116;-89
2021/12/26 05:44:40;;;;;;;41.95;7.75;;;11.20;99.90;;;;;;5032007;28;20096;-89
2021/12/26 05:47:06;;;;;;;41.08;8.55;;;11.10;99.90;;;;;;5012906;28;20537;-89
2021/12/26 05:49:31;;;;;;;45.03;7.43;;;11.10;99.90;;;;;;5031629;28;20022;-88
2021/12/26 05:51:57;;;;;;;41.40;7.05;;;11.00;99.90;;;;;;5031644;28;20025;-89
2021/12/26 05:54:23;;;;;;;50.63;7.50;;;11.00;99.90;;;;;;5031437;28;20068;-89
2021/12/26 05:56:49;;;;;;;36.75;6.88;;;11.00;99.90;;;;;;5031378;28;20025;-89
2021/12/26 05:59:15;;;;;;;44.83;7.55;;;11.10;99.90;;;;;;5031191;28;20075;-89
2021/12/26 06:01:40;;;;;;;38.42;7.32;;;11.00;99.90;;;;;;5031325;28;20129;-89
2021/12/26 06:04:06;;;;;;;44.50;7.93;;;11.10;99.90;;;;;;5031316;28;20026;-89
2021/12/26 06:06:32;;;;;;;30.67;6.40;;;11.10;99.90;;;;;;5013482;28;20572;-89
2021/12/26 06:08:58;;;;;;;35.95;7.13;;;11.10;99.90;;;;;;5031248;28;20017;-89
2021/12/26 06:11:23;;;;;;;44.38;7.13;;;11.10;99.90;;;;;;5031295;28;20029;-89
2021/12/26 06:13:49;;;;;;;41.58;7.03;;;11.10;99.90;;;;;;5013462;28;20405;-89
2021/12/26 06:16:15;;;;;;;48.20;6.53;;;11.10;99.90;;;;;;5030894;28;20026;-89
2021/12/26 06:18:40;;;;;;;43.55;7.32;;;11.10;99.90;;;;;;5031129;28;20071;-89
2021/12/26 06:21:06;;;;;;;38.30;7.47;;;11.10;99.90;;;;;;5030906;28;20042;-89
2021/12/26 06:23:32;;;;;;;48.15;8.75;;;11.20;99.90;;;;;;5013131;28;20021;-89
2021/12/26 06:25:57;;;;;;;50.63;9.48;;;11.20;99.90;;;;;;5030955;28;20118;-89
2021/12/26 06:28:23;;;;;;;43.58;7.68;;;11.20;99.90;;;;;;5031198;28;20075;-88
2021/12/26 06:30:48;;;;;;;45.58;7.32;;;11.20;99.90;;;;;;5030725;28;20052;-89
2021/12/26 06:33:14;;;;;;;67.43;8.63;;;11.30;99.90;;;;;;5030892;28;20021;-89
2021/12/26 06:35:40;;;;;;;45.85;6.35;;;11.20;99.90;;;;;;5013204;28;20098;-89
2021/12/26 06:38:05;;;;;;;31.67;6.25;;;11.20;99.90;;;;;;5030597;28;20285;-89
2021/12/26 06:40:31;;;;;;;52.72;6.82;;;11.20;99.90;;;;;;5012636;28;20107;-89
2021/12/26 06:42:57;;;;;;;50.42;6.50;;;11.10;99.90;;;;;;5012991;28;20032;-89
2021/12/26 06:45:23;;;;;;;50.58;7.75;;;11.20;99.90;;;;;;5030694;28;20029;-89
2021/12/26 06:47:51;;;;;;;39.42;6.55;;;11.20;99.90;;;;;;5012657;28;20060;-89
2021/12/26 06:50:19;;;;;;;50.25;7.32;;;11.20;99.90;;;;;;5030560;28;20051;-88
2021/12/26 06:52:44;;;;;;;56.47;7.50;;;11.20;99.90;;;;;;5030535;28;20653;-89
2021/12/26 06:55:10;;;;;;;57.05;7.25;;;11.20;99.90;;;;;;5012735;28;20033;-89
2021/12/26 06:57:37;;;;;;;51.20;6.35;;;11.10;99.90;;;;;;5030222;28;20017;-88
2021/12/26 07:00:08;;;;;;;38.53;6.25;;;11.10;99.90;;;;;;5029864;28;20038;-88
2021/12/26 07:02:34;;;;;;;47.42;6.13;;;11.10;99.90;;;;;;5012285;28;20018;-89
2021/12/26 07:05:00;;;;;;;49.80;6.22;;;11.10;99.90;;;;;;5029734;28;20048;-89
2021/12/26 07:07:26;;;;;;;42.25;5.38;;;11.00;99.90;;;;;;5030258;28;20052;-87
2021/12/26 07:09:51;;;;;;;55.80;5.90;;;11.10;99.90;;;;;;5030169;28;20029;-87
2021/12/26 07:12:17;;;;;;;52.85;6.00;;;11.10;99.90;;;;;;5030284;28;20055;-89
2021/12/26 07:14:43;;;;;;;39.88;6.70;;;11.00;99.90;;;;;;5030349;28;20403;-89
2021/12/26 07:17:12;;;;;;;52.20;7.22;;;11.00;99.90;;;;;;5014523;28;20460;-90
2021/12/26 07:19:38;;;;;;;45.85;5.35;;;11.00;99.90;;;;;;5030064;28;20033;-88
2021/12/26 07:22:05;;;;;;;51.72;5.60;;;10.90;99.90;;;;;;5030044;28;20022;-88
2021/12/26 07:24:31;;;;;;;60.85;7.55;;;10.90;99.90;;;;;;5029805;28;20037;-89
2021/12/26 07:26:57;;;;;;;49.22;7.07;;;10.80;99.90;;;;;;5012283;28;20404;-89
2021/12/26 07:29:22;;;;;;;60.25;6.82;;;10.90;99.90;;;;;;5030039;28;20033;-89
2021/12/26 07:31:48;;;;;;;57.67;7.03;;;10.90;99.90;;;;;;5030328;28;20053;-89
2021/12/26 07:34:14;;;;;;;57.90;7.82;;;10.90;99.90;;;;;;5029827;28;20021;-89
2021/12/26 07:36:40;;;;;;;57.22;7.18;;;11.00;99.90;;;;;;5012148;28;20048;-90
2021/12/26 07:39:06;;;;;;;56.45;8.82;;;10.90;99.90;;;;;;5012059;28;20410;-90
2021/12/26 07:41:32;;;;;;;78.28;10.63;;;10.90;99.90;;;;;;5029981;28;20410;-89
2021/12/26 07:43:59;;;;;;;74.80;10.43;;;10.90;99.90;;;;;;5011760;28;20068;-89
2021/12/26 07:46:25;;;;;;;64.82;9.77;;;10.90;99.90;;;;;;5029766;28;20137;-89
2021/12/26 07:48:52;;;;;;;1462.45;199.60;;;10.90;99.90;;;;;;5011853;28;20619;-89
2021/12/26 07:51:19;;;;;;;64.45;12.20;;;10.90;99.90;;;;;;5029774;28;20104;-89
2021/12/26 07:53:47;;;;;;;56.72;12.10;;;10.90;99.90;;;;;;5012391;28;20401;-90
2021/12/26 07:56:14;;;;;;;53.00;10.73;;;11.00;99.90;;;;;;5012041;28;20021;-89
2021/12/26 07:58:40;;;;;;;53.05;9.60;;;11.00;99.90;;;;;;5029823;28;20026;-89
2021/12/26 08:01:06;;;;;;;57.60;9.98;;;11.00;99.90;;;;;;5011907;28;20030;-89
2021/12/26 08:03:35;;;;;;;58.83;8.52;;;11.00;99.90;;;;;;5029256;28;20014;-89
2021/12/26 08:06:02;;;;;;;54.70;8.65;;;11.00;99.90;;;;;;5029362;28;20383;-89
2021/12/26 08:08:28;;;;;;;46.50;6.40;;;11.10;99.90;;;;;;5029509;28;20018;-89
2021/12/26 08:10:54;;;;;;;60.55;7.72;;;11.10;99.90;;;;;;5015501;28;20025;-89
2021/12/26 08:13:19;;;;;;;51.95;7.25;;;11.10;99.90;;;;;;5033626;28;20474;-89
2021/12/26 08:15:45;;;;;;;52.03;8.85;;;11.20;99.90;;;;;;5033426;28;20036;-89
2021/12/26 08:18:11;;;;;;;53.15;8.10;;;11.20;99.90;;;;;;5033098;28;20187;-89
2021/12/26 08:20:37;;;;;;;58.47;7.75;;;11.20;99.90;;;;;;5033110;28;20038;-89
2021/12/26 08:23:03;;;;;;;53.03;7.60;;;11.20;99.90;;;;;;5033208;28;20356;-89
2021/12/26 08:25:29;;;;;;;47.70;7.78;;;11.30;99.90;;;;;;5015164;28;20092;-89
2021/12/26 08:27:55;;;;;;;47.28;8.30;;;11.30;99.90;;;;;;5033242;28;20049;-89
2021/12/26 08:30:21;;;;;;;45.47;7.55;;;11.30;99.90;;;;;;5033145;28;20025;-88
2021/12/26 08:32:51;;;;;;;59.92;7.85;;;11.40;99.90;;;;;;5032895;28;20103;-89
2021/12/26 08:35:17;;;;;;;57.47;7.20;;;11.50;99.90;;;;;;5015147;28;20379;-89
2021/12/26 08:37:45;;;;;;;61.22;7.75;;;11.50;99.90;;;;;;5033107;28;20025;-88
2021/12/26 08:40:11;;;;;;;49.60;6.47;;;11.60;99.90;;;;;;5032693;28;20029;-89
2021/12/26 08:42:37;;;;;;;53.17;7.10;;;11.60;99.90;;;;;;5032772;28;20363;-88
2021/12/26 08:45:03;;;;;;;60.25;7.90;;;11.70;99.90;;;;;;5014771;28;20025;-88
2021/12/26 08:47:29;;;;;;;60.85;7.00;;;11.70;99.90;;;;;;5032690;28;20026;-89
2021/12/26 08:49:55;;;;;;;42.88;7.75;;;11.80;99.90;;;;;;5032537;28;20474;-88
2021/12/26 08:52:21;;;;;;;45.00;6.57;;;11.80;99.90;;;;;;5032710;28;20018;-88
2021/12/26 08:54:47;;;;;;;49.55;7.60;;;11.90;99.90;;;;;;5032833;28;20097;-88
2021/12/26 08:57:15;;;;;;;55.22;7.85;;;11.80;99.90;;;;;;5014714;28;20525;-88
2021/12/26 08:59:41;;;;;;;64.45;10.23;;;11.90;99.90;;;;;;5032492;28;20033;-89
2021/12/26 09:02:08;;;;;;;58.00;10.60;;;11.80;99.90;;;;;;5032529;28;20442;-88
2021/12/26 09:04:36;;;;;;;52.38;8.48;;;11.80;99.90;;;;;;5032154;28;20045;-88
2021/12/26 09:07:02;;;;;;;64.18;9.60;;;11.80;99.90;;;;;;5032108;28;20048;-88
2021/12/26 09:09:29;;;;;;;62.08;9.52;;;11.80;99.90;;;;;;5014761;28;20021;-88
2021/12/26 09:11:58;;;;;;;58.13;8.10;;;11.80;99.90;;;;;;5032279;28;20025;-88
2021/12/26 09:14:26;;;;;;;42.25;7.32;;;11.80;99.90;;;;;;5032334;28;20068;-88
2021/12/26 09:16:51;;;;;;;59.45;7.82;;;11.70;99.90;;;;;;5032381;28;20026;-88
2021/12/26 09:19:17;;;;;;;62.15;8.30;;;11.70;99.90;;;;;;5032290;28;20104;-88
2021/12/26 09:21:43;;;;;;;77.40;8.68;;;11.70;99.90;;;;;;5032311;28;20041;-89
2021/12/26 09:24:09;;;;;;;70.93;9.82;;;11.60;99.90;;;;;;5031845;28;20453;-88
2021/12/26 09:26:34;;;;;;;88.78;9.38;;;11.60;99.90;;;;;;5031908;28;20061;-87
2021/12/26 09:29:00;;;;;;;67.82;9.55;;;11.60;99.90;;;;;;5031931;28;20478;-88
2021/12/26 09:31:27;;;;;;;90.03;10.90;;;11.60;99.90;;;;;;5032020;28;20481;-88
2021/12/26 09:33:52;;;;;;;89.18;10.10;;;11.50;99.90;;;;;;5031943;28;20029;-87
2021/12/26 09:36:19;;;;;;;59.38;9.23;;;11.60;99.90;;;;;;5032029;28;20132;-87
2021/12/26 09:38:44;;;;;;;56.13;9.60;;;11.60;99.90;;;;;;5014246;28;20061;-88
2021/12/26 09:41:10;;;;;;;70.35;9.45;;;11.70;99.90;;;;;;5031603;28;20061;-88
2021/12/26 09:43:36;;;;;;;79.25;9.05;;;11.80;99.90;;;;;;5031800;28;20109;-87
2021/12/26 09:46:01;;;;;;;62.50;7.50;;;11.80;99.90;;;;;;5013737;28;20025;-87
2021/12/26 09:48:27;;;;;;;71.95;9.32;;;11.90;99.90;;;;;;5031239;28;20017;-87
2021/12/26 09:50:53;;;;;;;50.25;8.73;;;11.90;99.90;;;;;;5013655;28;20021;-87
2021/12/26 09:53:20;;;;;;;58.97;9.65;;;12.00;99.90;;;;;;5013790;28;20041;-87
2021/12/26 09:55:46;;;;;;;68.07;7.72;;;12.10;99.90;;;;;;5013628;28;20101;-87
2021/12/26 09:58:11;;;;;;;69.50;8.00;;;12.10;99.90;;;;;;5031442;28;20514;-87
2021/12/26 10:00:45;;;;;;;69.65;7.72;;;12.20;99.90;;;;;;5013709;28;20076;-86
2021/12/26 10:03:11;;;;;;;77.70;9.02;;;12.10;99.90;;;;;;5031222;28;20029;-88
2021/12/26 10:05:55;;;;;;;48.05;6.80;;;12.20;99.90;;;;;;5013216;28;20045;-87
2021/12/26 10:08:21;;;;;;;57.63;6.90;;;12.20;99.90;;;;;;5030985;28;20179;-86
2021/12/26 10:11:08;;;;;;;51.78;7.22;;;12.30;99.90;;;;;;5013279;28;20549;-86
2021/12/26 10:13:44;;;;;;;57.35;6.78;;;12.40;99.90;;;;;;5013504;28;20485;-86
2021/12/26 10:16:11;;;;;;;62.00;8.05;;;12.40;99.90;;;;;;5013310;28;20036;-86
2021/12/26 10:18:39;;;;;;;41.63;5.30;;;12.40;99.90;;;;;;5031446;28;20129;-86
2021/12/26 10:21:24;;;;;;;43.85;5.15;;;12.40;99.90;;;;;;5030874;28;20440;-86
2021/12/26 10:23:50;;;;;;;42.17;4.82;;;12.40;99.90;;;;;;5031031;28;20022;-85
2021/12/26 10:26:26;;;;;;;47.83;5.80;;;12.40;99.90;;;;;;5030779;28;20029;-86
2021/12/26 10:29:26;;;;;;;43.00;6.10;;;12.50;99.90;;;;;;5031210;28;20022;-85
2021/12/26 10:32:07;;;;;;;43.03;6.40;;;12.60;99.90;;;;;;5029348;28;20038;-85
2021/12/26 10:34:32;;;;;;;41.40;5.80;;;12.70;99.90;;;;;;5030608;28;20021;-85
2021/12/26 10:37:01;;;;;;;35.25;5.57;;;12.70;99.90;;;;;;5030810;28;20087;-85
2021/12/26 10:39:35;;;;;;;35.08;4.30;;;12.80;99.90;;;;;;5030514;28;20044;-86
2021/12/26 10:42:05;;;;;;;44.30;5.25;;;12.80;99.90;;;;;;5030630;28;20076;-85
2021/12/26 10:44:33;;;;;;;29.80;3.65;;;12.80;99.90;;;;;;5030539;28;20108;-85
2021/12/26 10:47:12;;;;;;;28.33;4.22;;;12.90;99.90;;;;;;5030601;28;20084;-84
2021/12/26 10:50:06;;;;;;;35.97;4.57;;;13.00;99.90;;;;;;5030201;28;20501;-85
2021/12/26 10:52:52;;;;;;;40.00;4.93;;;13.10;99.90;;;;;;5026727;28;20030;-85
2021/12/26 10:55:30;;;;;;;38.13;4.88;;;13.20;99.90;;;;;;5030405;28;20057;-84
2021/12/26 10:57:56;;;;;;;30.83;4.47;;;13.20;99.90;;;;;;5012899;28;20371;-85
2021/12/26 11:00:33;;;;;;;32.97;4.38;;;13.10;99.90;;;;;;5030239;28;20140;-84
2021/12/26 11:03:05;;;;;;;35.30;4.28;;;13.10;99.90;;;;;;5030143;28;20018;-84
2021/12/26 11:05:35;;;;;;;38.40;5.13;;;13.00;99.90;;;;;;5030121;28;20513;-84
2021/12/26 11:08:04;;;;;;;32.58;3.95;;;13.10;99.90;;;;;;5012326;28;20031;-84
2021/12/26 11:10:40;;;;;;;30.42;5.53;;;13.20;99.90;;;;;;5029933;28;20174;-84
2021/12/26 11:13:24;;;;;;;30.58;4.25;;;13.20;99.90;;;;;;5029887;28;20026;-85
2021/12/26 11:15:55;;;;;;;36.80;3.53;;;13.30;99.90;;;;;;5029902;28;20026;-84
2021/12/26 11:18:23;;;;;;;32.95;4.45;;;13.20;99.90;;;;;;5030073;28;20022;-84
2021/12/26 11:20:55;;;;;;;42.95;5.07;;;13.20;99.90;;;;;;5029861;28;20448;-85
2021/12/26 11:23:24;;;;;;;31.90;4.13;;;13.30;99.90;;;;;;5030048;28;20025;-84
2021/12/26 11:26:03;;;;;;;38.22;5.30;;;13.40;99.90;;;;;;5030164;28;20064;-84
2021/12/26 11:28:32;;;;;;;33.78;4.63;;;13.30;99.90;;;;;;5030070;28;20021;-85
2021/12/26 11:31:03;;;;;;;50.65;5.68;;;13.30;99.90;;;;;;5029794;28;20029;-84
2021/12/26 11:33:29;;;;;;;42.40;5.68;;;13.10;99.90;;;;;;5029396;28;20428;-84
2021/12/26 11:35:57;;;;;;;43.22;6.20;;;13.00;99.90;;;;;;5029858;28;20433;-85
2021/12/26 11:38:25;;;;;;;36.17;5.25;;;13.10;99.90;;;;;;5029765;28;20463;-84
2021/12/26 11:40:54;;;;;;;43.17;6.88;;;13.30;99.90;;;;;;5029583;28;20124;-84
2021/12/26 11:43:34;;;;;;;34.97;5.45;;;13.40;99.90;;;;;;5011996;28;20557;-84
2021/12/26 11:46:20;;;;;;;39.72;6.40;;;13.30;99.90;;;;;;5033845;28;20025;-85
2021/12/26 11:49:21;;;;;;;41.15;5.47;;;13.30;99.90;;;;;;5033743;28;20053;-88
2021/12/26 11:52:11;;;;;;;33.00;4.82;;;13.20;99.90;;;;;;5033600;28;20599;-87
2021/12/26 11:54:59;;;;;;;44.70;6.03;;;13.30;99.90;;;;;;5015798;28;20119;-86
2021/12/26 11:58:09;;;;;;;31.40;3.85;;;13.40;99.90;;;;;;5033832;28;20140;-87
2021/12/26 12:00:38;;;;;;;48.15;6.20;;;13.30;99.90;;;;;;5027805;28;20045;-87
2021/12/26 12:03:15;;;;;;;35.65;4.93;;;13.40;99.90;;;;;;5013691;28;20101;-88
2021/12/26 12:05:43;;;;;;;47.53;9.38;;;13.40;99.90;;;;;;4996009;28;20046;-87
2021/12/26 12:08:11;;;;;;;43.42;7.82;;;13.40;99.90;;;;;;4996176;28;20491;-87
2021/12/26 12:10:40;;;;;;;38.15;4.97;;;13.40;99.90;;;;;;5013215;28;20025;-87
2021/12/26 12:13:08;;;;;;;49.10;6.70;;;13.50;99.90;;;;;;5013555;28;20088;-87
2021/12/26 12:15:51;;;;;;;38.38;4.85;;;13.50;99.90;;;;;;5013592;28;20025;-88
2021/12/26 12:18:25;;;;;;;40.25;5.22;;;13.60;99.90;;;;;;5013377;28;20105;-88
2021/12/26 12:21:29;;;;;;;35.78;5.05;;;13.70;99.90;;;;;;5013608;28;20104;-88
2021/12/26 12:24:11;;;;;;;34.50;4.43;;;13.70;99.90;;;;;;5013675;28;20081;-86
2021/12/26 12:26:52;;;;;;;31.20;4.38;;;13.70;99.90;;;;;;4995936;28;20331;-86
2021/12/26 12:29:24;;;;;;;32.60;3.90;;;13.60;99.90;;;;;;4995799;28;20033;-86
2021/12/26 12:32:08;;;;;;;39.33;6.72;;;13.70;99.90;;;;;;5013191;28;20122;-86
2021/12/26 12:34:57;;;;;;;30.23;4.00;;;13.80;99.90;;;;;;5012804;28;20025;-86
2021/12/26 12:37:48;;;;;;;29.02;4.55;;;13.80;99.90;;;;;;5013211;28;20058;-86
2021/12/26 12:40:29;;;;;;;28.92;4.63;;;13.90;99.90;;;;;;4995698;28;20038;-86
2021/12/26 12:43:12;;;;;;;34.15;5.45;;;13.90;99.90;;;;;;5013176;28;20490;-86
2021/12/26 12:45:58;;;;;;;38.07;4.97;;;13.90;99.90;;;;;;5013246;28;20034;-85
2021/12/26 12:48:50;;;;;;;36.13;5.30;;;13.90;99.90;;;;;;5013284;28;20749;-87
2021/12/26 12:51:15;;;;;;;33.83;5.13;;;14.10;99.90;;;;;;5012918;28;20026;-86